createdAt,value
2023-05-21T00:00:50.483Z,8.26
2023-05-21T00:03:17.254Z,8.24
2023-05-21T00:05:44.392Z,8.22
2023-05-21T00:08:12.757Z,8.20
2023-05-21T00:10:39.441Z,8.19
2023-05-21T00:13:06.124Z,8.17
2023-05-21T00:15:32.860Z,8.14
2023-05-21T00:17:59.702Z,8.11
2023-05-21T00:20:26.287Z,8.05
2023-05-21T00:22:53.168Z,8.05
2023-05-21T00:25:21.109Z,8.04
2023-05-21T00:27:47.646Z,8.01
2023-05-21T00:30:14.182Z,7.99
2023-05-21T00:32:40.769Z,7.99
2023-05-21T00:35:08.645Z,7.96
2023-05-21T00:37:35.350Z,7.97
2023-05-21T00:40:02.383Z,7.98
2023-05-21T00:42:30.453Z,7.95
2023-05-21T00:44:57.072Z,7.95
2023-05-21T00:47:24.367Z,7.92
2023-05-21T00:49:51.178Z,7.93
2023-05-21T00:52:17.793Z,7.91
2023-05-21T00:54:44.412Z,7.95
2023-05-21T00:57:11.217Z,7.97
2023-05-21T00:59:39.449Z,7.96
2023-05-21T01:02:06.319Z,7.94
2023-05-21T01:04:33.030Z,7.93
2023-05-21T01:06:59.577Z,7.93
2023-05-21T01:09:26.902Z,7.94
2023-05-21T01:11:55.442Z,7.93
2023-05-21T01:14:24.055Z,7.93
2023-05-21T01:16:52.739Z,7.90
2023-05-21T01:19:21.440Z,7.93
2023-05-21T01:21:50.628Z,7.89
2023-05-21T01:24:19.308Z,7.88
2023-05-21T01:26:45.972Z,7.88
2023-05-21T01:29:13.311Z,7.86
2023-05-21T01:31:52.687Z,7.85
2023-05-21T01:34:23.881Z,7.83
2023-05-21T01:36:57.338Z,7.81
2023-05-21T01:39:30.222Z,7.77
2023-05-21T01:41:57.978Z,7.76
2023-05-21T01:44:25.666Z,7.74
2023-05-21T01:46:54.450Z,7.70
2023-05-21T01:49:22.530Z,7.70
2023-05-21T01:51:49.766Z,7.66
2023-05-21T01:54:16.427Z,7.64
2023-05-21T01:56:44.353Z,7.63
2023-05-21T01:59:11.771Z,7.60
2023-05-21T02:01:38.340Z,7.55
2023-05-21T02:04:05.324Z,7.55
2023-05-21T02:06:31.898Z,7.53
2023-05-21T02:08:58.429Z,7.51
2023-05-21T02:11:25.022Z,7.49
2023-05-21T02:13:52.890Z,7.48
2023-05-21T02:16:19.649Z,7.46
2023-05-21T02:18:46.294Z,7.41
2023-05-21T02:21:12.925Z,7.40
2023-05-21T02:23:39.448Z,7.38
2023-05-21T02:26:05.976Z,7.39
2023-05-21T02:28:32.548Z,7.41
2023-05-21T02:31:00.580Z,7.40
2023-05-21T02:33:27.124Z,7.39
2023-05-21T02:35:53.890Z,7.39
2023-05-21T02:38:20.684Z,7.41
2023-05-21T02:40:47.266Z,7.40
2023-05-21T02:43:15.410Z,7.40
2023-05-21T02:45:42.808Z,7.40
2023-05-21T02:48:10.883Z,7.42
2023-05-21T02:50:37.417Z,7.45
2023-05-21T02:53:04.161Z,7.45
2023-05-21T02:55:30.885Z,7.45
2023-05-21T02:57:57.425Z,7.44
2023-05-21T03:00:24.007Z,7.44
2023-05-21T03:02:50.550Z,7.44
2023-05-21T03:05:18.526Z,7.44
2023-05-21T03:07:45.234Z,7.44
2023-05-21T03:10:11.916Z,7.44
2023-05-21T03:12:38.679Z,7.44
2023-05-21T03:15:06.042Z,7.43
2023-05-21T03:17:32.697Z,7.43
2023-05-21T03:19:59.292Z,7.42
2023-05-21T03:22:27.246Z,7.43
2023-05-21T03:24:53.802Z,7.42
2023-05-21T03:27:20.330Z,7.41
2023-05-21T03:29:47.008Z,7.40
2023-05-21T03:32:13.802Z,7.39
2023-05-21T03:34:40.696Z,7.39
2023-05-21T03:37:07.378Z,7.38
2023-05-21T03:39:35.268Z,7.39
2023-05-21T03:42:01.911Z,7.39
2023-05-21T03:44:28.483Z,7.40
2023-05-21T03:46:55.024Z,7.43
2023-05-21T03:49:21.622Z,7.43
2023-05-21T03:51:48.335Z,7.45
2023-05-21T03:54:15.014Z,7.49
2023-05-21T03:56:42.934Z,7.52
2023-05-21T03:59:09.435Z,7.55
2023-05-21T04:01:36.281Z,7.58
2023-05-21T04:04:03.076Z,7.64
2023-05-21T04:06:29.856Z,7.68
2023-05-21T04:08:56.410Z,7.75
2023-05-21T04:11:23.024Z,7.80
2023-05-21T04:13:50.975Z,7.87
2023-05-21T04:16:17.607Z,7.92
2023-05-21T04:18:45.638Z,7.99
2023-05-21T04:21:13.135Z,8.06
2023-05-21T04:23:39.756Z,8.14
2023-05-21T04:26:06.466Z,8.21
2023-05-21T04:28:32.993Z,8.28
2023-05-21T04:31:00.916Z,8.35
2023-05-21T04:33:27.508Z,8.43
2023-05-21T04:35:55.384Z,8.49
2023-05-21T04:38:22.010Z,8.54
2023-05-21T04:40:50.536Z,8.55
2023-05-21T04:43:17.171Z,8.61
2023-05-21T04:45:43.857Z,8.64
2023-05-21T04:48:12.260Z,8.70
2023-05-21T04:50:38.827Z,8.82
2023-05-21T04:53:05.525Z,8.90
2023-05-21T04:55:32.028Z,8.98
2023-05-21T04:57:58.600Z,9.07
2023-05-21T05:00:25.311Z,9.12
2023-05-21T05:02:51.914Z,9.23
2023-05-21T05:05:19.952Z,9.35
2023-05-21T05:07:46.471Z,9.47
2023-05-21T05:10:13.029Z,9.59
2023-05-21T05:12:39.708Z,9.68
2023-05-21T05:15:07.321Z,9.73
2023-05-21T05:17:33.906Z,9.84
2023-05-21T05:20:00.412Z,9.94
2023-05-21T05:22:28.456Z,10.11
2023-05-21T05:24:55.023Z,10.21
2023-05-21T05:27:21.725Z,10.27
2023-05-21T05:29:48.348Z,10.37
2023-05-21T05:32:14.972Z,10.42
2023-05-21T05:34:41.675Z,10.51
2023-05-21T05:37:08.402Z,10.67
2023-05-21T05:39:36.428Z,10.75
2023-05-21T05:42:03.564Z,10.80
2023-05-21T05:44:30.172Z,10.92
2023-05-21T05:46:56.731Z,10.98
2023-05-21T05:49:23.357Z,11.18
2023-05-21T05:51:50.049Z,11.34
2023-05-21T05:54:16.577Z,11.40
2023-05-21T05:56:44.562Z,11.53
2023-05-21T05:59:11.110Z,11.66
2023-05-21T06:01:37.614Z,11.76
2023-05-21T06:04:04.409Z,11.67
2023-05-21T06:06:31.095Z,11.86
2023-05-21T06:08:57.599Z,12.04
2023-05-21T06:11:24.286Z,12.23
2023-05-21T06:13:52.211Z,12.49
2023-05-21T06:16:19.029Z,12.63
2023-05-21T06:18:45.627Z,12.87
2023-05-21T06:21:12.343Z,13.02
2023-05-21T06:23:39.020Z,13.13
2023-05-21T06:26:05.699Z,13.37
2023-05-21T06:28:32.259Z,13.48
2023-05-21T06:31:02.738Z,13.67
2023-05-21T06:33:29.525Z,13.91
2023-05-21T06:35:56.150Z,14.14
2023-05-21T06:38:22.839Z,14.25
2023-05-21T06:40:50.074Z,14.43
2023-05-21T06:43:16.642Z,14.69
2023-05-21T06:45:43.232Z,14.79
2023-05-21T06:48:11.288Z,15.01
2023-05-21T06:50:38.007Z,15.12
2023-05-21T06:53:04.543Z,15.27
2023-05-21T06:55:31.223Z,15.39
2023-05-21T06:57:57.813Z,15.53
2023-05-21T07:00:24.641Z,15.67
2023-05-21T07:02:51.634Z,15.86
2023-05-21T07:05:19.914Z,16.02
2023-05-21T07:07:46.444Z,16.13
2023-05-21T07:10:12.981Z,16.26
2023-05-21T07:12:39.678Z,16.50
2023-05-21T07:15:07.179Z,16.48
2023-05-21T07:17:33.776Z,16.56
2023-05-21T07:20:00.385Z,16.71
2023-05-21T07:22:28.598Z,16.75
2023-05-21T07:24:55.218Z,16.95
2023-05-21T07:27:25.870Z,17.05
2023-05-21T07:29:52.702Z,17.37
2023-05-21T07:32:19.427Z,17.54
2023-05-21T07:34:45.963Z,17.60
2023-05-21T07:37:12.523Z,17.49
2023-05-21T07:39:40.507Z,17.55
2023-05-21T07:42:07.181Z,17.64
2023-05-21T07:44:33.745Z,17.65
2023-05-21T07:47:00.415Z,17.75
2023-05-21T07:49:26.917Z,17.77
2023-05-21T07:51:53.434Z,17.89
2023-05-21T07:54:19.998Z,17.92
2023-05-21T07:56:47.927Z,18.08
2023-05-21T07:59:16.287Z,18.30
2023-05-21T08:01:42.854Z,18.84
2023-05-21T08:04:09.744Z,19.11
2023-05-21T08:06:36.334Z,19.42
2023-05-21T08:09:03.128Z,19.51
2023-05-21T08:11:29.638Z,19.59
2023-05-21T08:13:57.605Z,19.77
2023-05-21T08:16:24.393Z,20.01
2023-05-21T08:18:50.948Z,20.10
2023-05-21T08:21:17.594Z,20.38
2023-05-21T08:23:44.661Z,20.67
2023-05-21T08:26:11.278Z,20.73
2023-05-21T08:28:38.354Z,21.25
2023-05-21T08:31:06.421Z,21.19
2023-05-21T08:33:35.369Z,21.63
2023-05-21T08:36:02.034Z,21.90
2023-05-21T08:38:30.226Z,22.00
2023-05-21T08:40:58.376Z,22.52
2023-05-21T08:43:27.545Z,22.78
2023-05-21T08:45:55.136Z,23.03
2023-05-21T08:48:24.231Z,22.89
2023-05-21T08:50:52.246Z,23.06
2023-05-21T08:53:27.125Z,22.99
2023-05-21T08:55:56.163Z,23.06
2023-05-21T08:58:23.055Z,23.53
2023-05-21T09:00:49.796Z,23.40
2023-05-21T09:03:16.981Z,23.42
2023-05-21T09:05:45.450Z,23.23
2023-05-21T09:08:15.024Z,23.18
2023-05-21T09:10:48.504Z,23.42
2023-05-21T09:13:16.601Z,23.56
2023-05-21T09:15:43.832Z,24.15
2023-05-21T09:18:10.432Z,24.40
2023-05-21T09:20:37.146Z,24.51
2023-05-21T09:23:06.210Z,24.38
2023-05-21T09:25:33.294Z,24.24
2023-05-21T09:27:59.936Z,24.54
2023-05-21T09:30:34.881Z,24.60
2023-05-21T09:33:02.636Z,24.88
2023-05-21T09:35:29.480Z,25.13
2023-05-21T09:37:56.044Z,25.44
2023-05-21T09:40:24.285Z,25.59
2023-05-21T09:42:52.107Z,25.58
2023-05-21T09:45:19.643Z,25.43
2023-05-21T09:47:48.495Z,25.88
2023-05-21T09:50:19.237Z,26.12
2023-05-21T09:52:46.214Z,26.37
2023-05-21T09:55:13.948Z,26.42
2023-05-21T09:57:42.631Z,26.57
2023-05-21T10:00:16.780Z,26.59
2023-05-21T10:02:45.534Z,26.88
2023-05-21T10:05:13.433Z,26.31
2023-05-21T10:07:42.083Z,27.03
2023-05-21T10:10:13.263Z,26.88
2023-05-21T10:12:43.810Z,26.68
2023-05-21T10:15:14.375Z,26.83
2023-05-21T10:17:41.814Z,27.19
2023-05-21T10:20:11.100Z,27.28
2023-05-21T10:22:37.904Z,26.86
2023-05-21T10:25:06.659Z,27.07
2023-05-21T10:27:34.682Z,27.09
2023-05-21T10:30:04.155Z,26.76
2023-05-21T10:32:31.445Z,26.38
2023-05-21T10:35:00.727Z,26.69
2023-05-21T10:37:29.010Z,27.08
2023-05-21T10:39:56.550Z,27.40
2023-05-21T10:42:44.657Z,27.75
2023-05-21T10:45:19.795Z,27.14
2023-05-21T10:47:58.638Z,27.44
2023-05-21T10:50:53.901Z,27.63
2023-05-21T10:53:29.024Z,27.85
2023-05-21T10:56:05.217Z,27.76
2023-05-21T10:58:47.617Z,27.39
2023-05-21T11:01:17.079Z,27.43
2023-05-21T11:03:43.862Z,27.36
2023-05-21T11:06:10.601Z,27.43
2023-05-21T11:08:38.585Z,27.25
2023-05-21T11:11:05.333Z,27.41
2023-05-21T11:13:45.721Z,28.17
2023-05-21T11:16:17.795Z,28.06
2023-05-21T11:19:00.606Z,28.01
2023-05-21T11:21:30.247Z,28.13
2023-05-21T11:24:00.229Z,28.19
2023-05-21T11:26:27.722Z,28.38
2023-05-21T11:29:07.301Z,28.46
2023-05-21T11:31:35.845Z,28.82
2023-05-21T11:34:15.344Z,29.17
2023-05-21T11:36:44.787Z,29.11
2023-05-21T11:39:13.444Z,28.59
2023-05-21T11:41:53.261Z,28.37
2023-05-21T11:44:37.432Z,27.94
2023-05-21T11:47:06.901Z,28.59
2023-05-21T11:49:34.195Z,29.35
2023-05-21T11:52:01.777Z,29.65
2023-05-21T11:54:28.684Z,30.08
2023-05-21T11:56:55.793Z,30.78
2023-05-21T11:59:22.320Z,30.84
2023-05-21T12:01:48.833Z,30.85
2023-05-21T12:04:16.715Z,31.38
2023-05-21T12:06:43.605Z,30.89
2023-05-21T12:09:10.446Z,30.48
2023-05-21T12:11:38.605Z,30.13
2023-05-21T12:14:07.217Z,30.55
2023-05-21T12:16:34.256Z,30.87
2023-05-21T12:19:01.829Z,31.71
2023-05-21T12:21:30.363Z,31.96
2023-05-21T12:23:57.073Z,31.86
2023-05-21T12:26:24.337Z,31.97
2023-05-21T12:28:51.768Z,31.94
2023-05-21T12:31:18.421Z,31.85
2023-05-21T12:33:45.177Z,31.52
2023-05-21T12:36:22.047Z,31.57
2023-05-21T12:38:50.323Z,31.42
2023-05-21T12:41:17.735Z,31.10
2023-05-21T12:43:44.573Z,31.44
2023-05-21T12:46:11.524Z,31.65
2023-05-21T12:48:38.149Z,31.28
2023-05-21T12:51:04.717Z,31.43
2023-05-21T12:53:36.781Z,31.34
2023-05-21T12:56:09.945Z,30.61
2023-05-21T12:58:36.632Z,30.97
2023-05-21T13:01:06.115Z,30.85
2023-05-21T13:03:32.897Z,30.29
2023-05-21T13:05:59.888Z,30.13
2023-05-21T13:08:26.800Z,29.91
2023-05-21T13:10:53.557Z,29.97
2023-05-21T13:13:21.584Z,29.12
2023-05-21T13:15:48.177Z,28.90
2023-05-21T13:18:14.922Z,28.85
2023-05-21T13:20:41.434Z,28.42
2023-05-21T13:23:10.561Z,28.35
2023-05-21T13:25:38.117Z,28.30
2023-05-21T13:28:05.189Z,28.13
2023-05-21T13:30:33.232Z,27.89
2023-05-21T13:33:00.118Z,27.67
2023-05-21T13:35:26.882Z,27.73
2023-05-21T13:37:53.476Z,27.80
2023-05-21T13:40:20.359Z,27.82
2023-05-21T13:42:48.540Z,28.05
2023-05-21T13:45:17.020Z,28.24
2023-05-21T13:47:46.111Z,28.45
2023-05-21T13:50:12.851Z,28.69
2023-05-21T13:52:39.643Z,28.85
2023-05-21T13:55:07.212Z,28.96
2023-05-21T13:57:34.098Z,29.46
2023-05-21T14:00:00.674Z,29.26
2023-05-21T14:02:27.545Z,29.18
2023-05-21T14:04:55.705Z,29.16
2023-05-21T14:07:22.362Z,28.90
2023-05-21T14:09:49.180Z,28.48
2023-05-21T14:12:15.827Z,28.30
2023-05-21T14:14:42.625Z,28.15
2023-05-21T14:17:09.230Z,27.90
2023-05-21T14:19:35.912Z,27.80
2023-05-21T14:22:04.004Z,27.91
2023-05-21T14:24:30.683Z,27.96
2023-05-21T14:26:57.213Z,27.55
2023-05-21T14:29:24.035Z,27.02
2023-05-21T14:31:50.812Z,26.40
2023-05-21T14:34:17.425Z,26.37
2023-05-21T14:36:44.117Z,26.20
2023-05-21T14:39:12.039Z,26.18
2023-05-21T14:41:39.415Z,26.01
2023-05-21T14:44:06.024Z,25.78
2023-05-21T14:46:32.817Z,25.53
2023-05-21T14:48:59.630Z,25.46
2023-05-21T14:51:26.179Z,25.28
2023-05-21T14:53:52.903Z,25.21
2023-05-21T14:56:20.968Z,25.22
2023-05-21T14:58:47.525Z,25.00
2023-05-21T15:01:14.287Z,24.96
2023-05-21T15:03:40.964Z,24.85
2023-05-21T15:06:07.854Z,24.75
2023-05-21T15:08:34.382Z,24.71
2023-05-21T15:11:01.099Z,24.63
2023-05-21T15:13:29.085Z,24.61
2023-05-21T15:15:55.908Z,24.66
2023-05-21T15:18:22.458Z,24.70
2023-05-21T15:20:49.156Z,24.68
2023-05-21T15:23:18.821Z,24.67
2023-05-21T15:25:45.640Z,24.56
2023-05-21T15:28:12.695Z,24.45
2023-05-21T15:30:40.971Z,24.42
2023-05-21T15:33:07.848Z,24.24
2023-05-21T15:35:35.264Z,24.18
2023-05-21T15:38:02.224Z,24.10
2023-05-21T15:40:28.754Z,24.08
2023-05-21T15:42:55.320Z,24.01
2023-05-21T15:45:22.077Z,24.06
2023-05-21T15:47:50.003Z,24.11
2023-05-21T15:50:16.627Z,24.17
2023-05-21T15:52:43.314Z,24.33
2023-05-21T15:55:09.986Z,24.71
2023-05-21T15:57:36.624Z,24.77
2023-05-21T16:00:03.548Z,24.68
2023-05-21T16:02:30.262Z,24.59
2023-05-21T16:04:58.251Z,24.41
2023-05-21T16:07:24.901Z,24.25
2023-05-21T16:09:51.488Z,24.13
2023-05-21T16:12:18.232Z,24.05
2023-05-21T16:14:45.042Z,24.02
2023-05-21T16:17:11.741Z,24.03
2023-05-21T16:19:38.957Z,23.97
2023-05-21T16:22:07.857Z,23.82
2023-05-21T16:24:35.973Z,23.75
2023-05-21T16:27:02.748Z,23.68
2023-05-21T16:29:29.262Z,23.58
2023-05-21T16:31:56.072Z,23.42
2023-05-21T16:34:22.661Z,23.27
2023-05-21T16:36:49.194Z,23.28
2023-05-21T16:39:17.183Z,23.27
2023-05-21T16:41:43.719Z,23.16
2023-05-21T16:44:10.438Z,23.12
2023-05-21T16:46:37.409Z,23.07
2023-05-21T16:49:04.037Z,23.02
2023-05-21T16:51:30.714Z,22.97
2023-05-21T16:53:57.387Z,23.04
2023-05-21T16:56:26.560Z,23.23
2023-05-21T16:58:53.119Z,23.50
2023-05-21T17:01:19.857Z,23.74
2023-05-21T17:03:46.785Z,23.89
2023-05-21T17:06:13.418Z,24.08
2023-05-21T17:08:40.016Z,24.12
2023-05-21T17:11:06.645Z,24.01
2023-05-21T17:13:34.584Z,23.83
2023-05-21T17:16:01.184Z,23.60
2023-05-21T17:18:27.723Z,23.36
2023-05-21T17:20:54.407Z,23.20
2023-05-21T17:23:21.010Z,23.04
2023-05-21T17:25:47.887Z,22.96
2023-05-21T17:28:14.432Z,22.85
2023-05-21T17:30:42.338Z,22.77
2023-05-21T17:33:09.075Z,22.67
2023-05-21T17:35:35.964Z,22.57
2023-05-21T17:38:02.680Z,22.47
2023-05-21T17:40:29.201Z,22.39
2023-05-21T17:42:55.779Z,22.32
2023-05-21T17:45:22.336Z,22.19
2023-05-21T17:47:50.478Z,22.07
2023-05-21T17:50:17.064Z,22.01
2023-05-21T17:52:43.648Z,21.96
2023-05-21T17:55:10.565Z,21.91
2023-05-21T17:57:37.267Z,21.87
2023-05-21T18:00:04.363Z,21.81
2023-05-21T18:02:31.071Z,21.77
2023-05-21T18:04:59.019Z,21.75
2023-05-21T18:07:25.568Z,21.72
2023-05-21T18:09:52.126Z,21.67
2023-05-21T18:12:18.720Z,21.60
2023-05-21T18:14:45.285Z,21.52
2023-05-21T18:17:11.801Z,21.49
2023-05-21T18:19:38.375Z,21.45
2023-05-21T18:22:06.650Z,21.40
2023-05-21T18:24:33.516Z,21.31
2023-05-21T18:27:00.129Z,21.25
2023-05-21T18:29:26.729Z,21.16
2023-05-21T18:31:53.812Z,21.08
2023-05-21T18:34:20.448Z,21.02
2023-05-21T18:36:47.018Z,20.98
2023-05-21T18:39:15.007Z,20.90
2023-05-21T18:41:41.679Z,20.86
2023-05-21T18:44:08.338Z,20.87
2023-05-21T18:46:35.013Z,20.77
2023-05-21T18:49:01.582Z,20.77
2023-05-21T18:51:28.233Z,20.71
2023-05-21T18:53:54.745Z,20.57
2023-05-21T18:56:22.714Z,20.49
2023-05-21T18:58:49.339Z,20.42
2023-05-21T19:01:16.260Z,20.33
2023-05-21T19:03:42.945Z,20.34
2023-05-21T19:06:09.514Z,20.25
2023-05-21T19:08:36.051Z,20.22
2023-05-21T19:11:02.972Z,20.18
2023-05-21T19:13:30.930Z,20.06
2023-05-21T19:15:57.559Z,20.01
2023-05-21T19:18:24.229Z,19.94
2023-05-21T19:20:50.907Z,19.92
2023-05-21T19:23:17.652Z,19.89
2023-05-21T19:25:44.236Z,19.87
2023-05-21T19:28:10.780Z,19.81
2023-05-21T19:30:38.978Z,19.81
2023-05-21T19:33:05.670Z,19.75
2023-05-21T19:35:32.306Z,19.67
2023-05-21T19:37:59.676Z,19.62
2023-05-21T19:40:27.767Z,19.60
2023-05-21T19:42:54.319Z,19.56
2023-05-21T19:45:21.090Z,19.54
2023-05-21T19:47:49.261Z,19.50
2023-05-21T19:50:15.914Z,19.44
2023-05-21T19:52:42.477Z,19.40
2023-05-21T19:55:09.332Z,19.35
2023-05-21T19:57:36.154Z,19.21
2023-05-21T20:00:03.280Z,19.10
2023-05-21T20:02:29.888Z,19.03
2023-05-21T20:04:57.773Z,18.94
2023-05-21T20:07:24.507Z,18.85
2023-05-21T20:09:51.109Z,18.77
2023-05-21T20:12:17.864Z,18.71
2023-05-21T20:14:44.410Z,18.69
2023-05-21T20:17:11.034Z,18.64
2023-05-21T20:19:37.872Z,18.59
2023-05-21T20:22:06.083Z,18.58
2023-05-21T20:24:32.760Z,18.59
2023-05-21T20:26:59.345Z,18.55
2023-05-21T20:29:26.015Z,18.54
2023-05-21T20:31:52.588Z,18.52
2023-05-21T20:34:19.193Z,18.51
2023-05-21T20:36:45.859Z,18.48
2023-05-21T20:39:13.794Z,18.43
2023-05-21T20:41:40.358Z,18.38
2023-05-21T20:44:06.935Z,18.32
2023-05-21T20:46:34.216Z,18.31
2023-05-21T20:49:00.911Z,18.30
2023-05-21T20:51:27.517Z,18.24
2023-05-21T20:53:54.033Z,18.22
2023-05-21T20:56:33.615Z,18.19
2023-05-21T20:59:08.576Z,18.13
2023-05-21T21:01:36.491Z,18.04
2023-05-21T21:04:03.474Z,17.99
2023-05-21T21:06:30.094Z,17.99
2023-05-21T21:08:56.702Z,17.92
2023-05-21T21:11:24.934Z,17.82
2023-05-21T21:13:51.568Z,17.73
2023-05-21T21:16:18.143Z,17.65
2023-05-21T21:18:44.929Z,17.59
2023-05-21T21:21:11.476Z,17.55
2023-05-21T21:23:38.223Z,17.49
2023-05-21T21:26:04.806Z,17.43
2023-05-21T21:28:32.714Z,17.38
2023-05-21T21:30:59.365Z,17.32
2023-05-21T21:33:25.917Z,17.32
2023-05-21T21:35:52.509Z,17.30
2023-05-21T21:38:19.230Z,17.33
2023-05-21T21:40:45.748Z,17.38
2023-05-21T21:43:12.312Z,17.34
2023-05-21T21:45:40.395Z,17.33
2023-05-21T21:48:07.183Z,17.35
2023-05-21T21:50:33.807Z,17.36
2023-05-21T21:53:00.551Z,17.37
2023-05-21T21:55:27.071Z,17.42
2023-05-21T21:57:53.623Z,17.43
2023-05-21T22:00:20.459Z,17.45
2023-05-21T22:02:48.392Z,17.44
2023-05-21T22:05:15.039Z,17.43
2023-05-21T22:07:42.062Z,17.39
2023-05-21T22:10:09.407Z,17.33
2023-05-21T22:12:36.002Z,17.24
2023-05-21T22:15:02.610Z,17.21
2023-05-21T22:17:29.170Z,17.19
2023-05-21T22:19:57.352Z,17.13
2023-05-21T22:22:24.067Z,17.07
2023-05-21T22:24:50.599Z,17.00
2023-05-21T22:27:17.286Z,16.93
2023-05-21T22:29:43.788Z,16.89
2023-05-21T22:32:10.478Z,16.86
2023-05-21T22:34:37.060Z,16.84
2023-05-21T22:37:05.203Z,16.85
2023-05-21T22:39:31.764Z,16.86
2023-05-21T22:41:58.400Z,16.89
2023-05-21T22:44:25.012Z,16.91
2023-05-21T22:46:51.591Z,16.92
2023-05-21T22:49:18.264Z,17.00
2023-05-21T22:51:44.999Z,17.03
2023-05-21T22:54:13.144Z,17.06
2023-05-21T22:56:39.812Z,17.09
2023-05-21T22:59:06.525Z,17.16
2023-05-21T23:01:33.438Z,17.28
2023-05-21T23:04:00.047Z,17.38
2023-05-21T23:06:26.610Z,17.40
2023-05-21T23:08:53.203Z,17.45
2023-05-21T23:11:21.206Z,17.48
2023-05-21T23:13:47.746Z,17.49
2023-05-21T23:16:14.447Z,17.49
2023-05-21T23:18:41.051Z,17.46
2023-05-21T23:21:07.967Z,17.46
2023-05-21T23:23:34.587Z,17.42
2023-05-21T23:26:01.161Z,17.38
2023-05-21T23:28:29.085Z,17.37
2023-05-21T23:30:55.671Z,17.35
2023-05-21T23:33:22.422Z,17.30
2023-05-21T23:35:49.008Z,17.24
2023-05-21T23:38:15.714Z,17.23
2023-05-21T23:40:42.268Z,17.22
2023-05-21T23:43:08.798Z,17.25
2023-05-21T23:45:36.866Z,17.24
2023-05-21T23:48:03.912Z,17.20
2023-05-21T23:50:30.555Z,17.17
2023-05-21T23:52:57.273Z,17.16
2023-05-21T23:55:23.852Z,17.14
2023-05-21T23:57:50.449Z,17.10
